Ana Sayfa
METAR-TAF:

METAR-TAF

Havaalanları :

Pasto, Kolombiya

Enlem: 01-25N, Boylam: 077-16W, yükseklik: 1826 m

Güncel hava durumu gözlemi

Rapor saat 16:00 UTC de 1 saat ve 2 dakika önce yapıldı.
Rüzgar kuzey/kuzeybatıdan 5 kt
Sıcaklık 20°C
Nem 78%
Basınç 1024 hPa
Görüş mesafesi: 5000 m
1500 ft yükseklikte parçalı bulutlu
8000 ft yükseklikte parçalı bulutlu
sis kütleleri

METAR: SKPS 221600Z 34005KT 9999 5000N BCFG SCT015 SCT080 20/16 A3023

Saat: 12:02 (17:02 UTC)


TAF: eksik

4.000'den fazla havaalanı için hava durumu gözlemleri ve tahminleri (METAR ve TAF raporları).

Kullanılabilir istasyonlar harita üzerinde sarı ve kırmızı noktalarla gösterilir.

İstasyonun adını görmek için fareyi noktanın üzerinde gezdirin.

Sonrasında hava gözlem ve tahminlerini görmek için tıklayın.

Haritayı değiştirmek için: yaklaştırmak için siyah artı işaretli yeşil düğmeye ve uzaklaştırmak için de eksi işaretli düğmeye hızla tıklayın; bitişik haritalar için yeşil okları kullanın.


METAR-TAF: